sensor_id;sensor_type;location;lat;lon;timestamp;pressure;altitude;pressure_sealevel;temperature;humidity
14882;BME280;7533;51.278;12.588;2024-02-21T00:00:17;100759.59;;;25.62;52.49
14882;BME280;7533;51.278;12.588;2024-02-21T00:05:21;100749.22;;;25.55;52.70
14882;BME280;7533;51.278;12.588;2024-02-21T00:10:24;100743.44;;;25.49;52.54
14882;BME280;7533;51.278;12.588;2024-02-21T00:15:27;100736.75;;;25.42;52.96
14882;BME280;7533;51.278;12.588;2024-02-21T00:20:31;100736.50;;;25.33;53.09
14882;BME280;7533;51.278;12.588;2024-02-21T00:25:34;100722.59;;;25.27;53.68
14882;BME280;7533;51.278;12.588;2024-02-21T00:30:37;100721.44;;;25.18;53.87
14882;BME280;7533;51.278;12.588;2024-02-21T00:35:42;100716.50;;;25.12;53.82
14882;BME280;7533;51.278;12.588;2024-02-21T00:40:45;100705.06;;;25.09;54.25
14882;BME280;7533;51.278;12.588;2024-02-21T00:45:47;100700.34;;;24.99;54.09
14882;BME280;7533;51.278;12.588;2024-02-21T00:50:52;100691.69;;;24.94;54.59
14882;BME280;7533;51.278;12.588;2024-02-21T00:55:54;100685.03;;;24.87;54.62
14882;BME280;7533;51.278;12.588;2024-02-21T01:00:58;100688.22;;;24.81;54.60
14882;BME280;7533;51.278;12.588;2024-02-21T01:06:03;100676.25;;;24.72;54.83
14882;BME280;7533;51.278;12.588;2024-02-21T01:11:06;100680.41;;;24.65;54.94
14882;BME280;7533;51.278;12.588;2024-02-21T01:16:09;100662.03;;;24.58;55.03
14882;BME280;7533;51.278;12.588;2024-02-21T01:21:13;100667.06;;;24.51;55.16
14882;BME280;7533;51.278;12.588;2024-02-21T01:26:16;100662.38;;;24.42;55.53
14882;BME280;7533;51.278;12.588;2024-02-21T01:31:19;100649.38;;;24.34;55.77
14882;BME280;7533;51.278;12.588;2024-02-21T01:36:24;100652.41;;;24.29;55.75
14882;BME280;7533;51.278;12.588;2024-02-21T01:41:29;100644.88;;;24.22;56.00
14882;BME280;7533;51.278;12.588;2024-02-21T01:46:32;100633.69;;;24.15;56.48
14882;BME280;7533;51.278;12.588;2024-02-21T01:51:36;100630.44;;;24.10;56.87
14882;BME280;7533;51.278;12.588;2024-02-21T01:56:39;100628.22;;;24.04;56.93
14882;BME280;7533;51.278;12.588;2024-02-21T02:01:43;100621.16;;;24.01;57.07
14882;BME280;7533;51.278;12.588;2024-02-21T02:06:48;100617.97;;;23.96;57.13
14882;BME280;7533;51.278;12.588;2024-02-21T02:11:51;100615.59;;;23.92;57.11
14882;BME280;7533;51.278;12.588;2024-02-21T02:16:54;100607.84;;;23.87;57.28
14882;BME280;7533;51.278;12.588;2024-02-21T02:22:04;100599.19;;;23.82;57.54
14882;BME280;7533;51.278;12.588;2024-02-21T02:27:10;100596.63;;;23.81;57.83
14882;BME280;7533;51.278;12.588;2024-02-21T02:32:13;100586.88;;;23.78;58.04
14882;BME280;7533;51.278;12.588;2024-02-21T02:37:16;100576.41;;;23.73;58.20
14882;BME280;7533;51.278;12.588;2024-02-21T02:42:21;100575.66;;;23.71;58.17
14882;BME280;7533;51.278;12.588;2024-02-21T02:47:23;100571.47;;;23.67;58.40
14882;BME280;7533;51.278;12.588;2024-02-21T02:52:26;100564.47;;;23.65;58.57
14882;BME280;7533;51.278;12.588;2024-02-21T02:57:31;100565.63;;;23.61;58.84
14882;BME280;7533;51.278;12.588;2024-02-21T03:02:33;100561.31;;;23.58;58.74
14882;BME280;7533;51.278;12.588;2024-02-21T03:07:36;100557.00;;;23.56;58.78
14882;BME280;7533;51.278;12.588;2024-02-21T03:12:41;100547.50;;;23.50;59.10
14882;BME280;7533;51.278;12.588;2024-02-21T03:17:43;100548.47;;;23.49;59.15
14882;BME280;7533;51.278;12.588;2024-02-21T03:22:46;100544.28;;;23.45;59.14
14882;BME280;7533;51.278;12.588;2024-02-21T03:27:50;100546.97;;;23.45;59.13
14882;BME280;7533;51.278;12.588;2024-02-21T03:32:54;100543.53;;;23.43;59.28
14882;BME280;7533;51.278;12.588;2024-02-21T03:37:57;100550.03;;;23.40;59.32
14882;BME280;7533;51.278;12.588;2024-02-21T03:43:01;100554.78;;;23.37;59.52
14882;BME280;7533;51.278;12.588;2024-02-21T03:48:05;100544.09;;;23.35;59.47
14882;BME280;7533;51.278;12.588;2024-02-21T03:53:08;100550.44;;;23.34;59.54
14882;BME280;7533;51.278;12.588;2024-02-21T03:58:12;100544.31;;;23.32;59.51
14882;BME280;7533;51.278;12.588;2024-02-21T04:03:15;100559.66;;;23.32;59.47
14882;BME280;7533;51.278;12.588;2024-02-21T04:08:18;100546.38;;;23.29;59.45
14882;BME280;7533;51.278;12.588;2024-02-21T04:13:22;100542.06;;;23.26;59.56
14882;BME280;7533;51.278;12.588;2024-02-21T04:18:25;100541.31;;;23.24;59.51
14882;BME280;7533;51.278;12.588;2024-02-21T04:23:28;100536.00;;;23.22;59.72
14882;BME280;7533;51.278;12.588;2024-02-21T04:28:32;100537.84;;;23.22;59.65
14882;BME280;7533;51.278;12.588;2024-02-21T04:33:35;100536.88;;;23.23;59.52
14882;BME280;7533;51.278;12.588;2024-02-21T04:38:38;100526.19;;;23.21;59.39
14882;BME280;7533;51.278;12.588;2024-02-21T04:43:42;100517.09;;;23.22;59.24
14882;BME280;7533;51.278;12.588;2024-02-21T04:48:45;100521.78;;;23.20;59.02
14882;BME280;7533;51.278;12.588;2024-02-21T04:53:47;100507.53;;;23.18;59.07
14882;BME280;7533;51.278;12.588;2024-02-21T04:58:52;100508.47;;;23.17;58.92
14882;BME280;7533;51.278;12.588;2024-02-21T05:03:54;100499.63;;;23.15;58.96
14882;BME280;7533;51.278;12.588;2024-02-21T05:08:58;100489.94;;;23.13;59.00
14882;BME280;7533;51.278;12.588;2024-02-21T05:14:03;100483.69;;;23.12;58.92
14882;BME280;7533;51.278;12.588;2024-02-21T05:19:06;100474.81;;;23.10;58.98
14882;BME280;7533;51.278;12.588;2024-02-21T05:24:09;100465.00;;;23.09;58.94
14882;BME280;7533;51.278;12.588;2024-02-21T05:29:13;100460.56;;;23.08;58.90
14882;BME280;7533;51.278;12.588;2024-02-21T05:34:16;100458.84;;;23.07;58.95
14882;BME280;7533;51.278;12.588;2024-02-21T05:39:19;100450.84;;;23.06;58.86
14882;BME280;7533;51.278;12.588;2024-02-21T05:44:25;100448.38;;;23.03;58.86
14882;BME280;7533;51.278;12.588;2024-02-21T05:49:29;100450.22;;;23.02;58.99
14882;BME280;7533;51.278;12.588;2024-02-21T05:54:31;100433.38;;;22.99;58.93
14882;BME280;7533;51.278;12.588;2024-02-21T05:59:37;100438.91;;;22.97;58.91
14882;BME280;7533;51.278;12.588;2024-02-21T06:04:41;100436.19;;;22.97;58.99
14882;BME280;7533;51.278;12.588;2024-02-21T06:09:46;100445.28;;;22.96;59.06
14882;BME280;7533;51.278;12.588;2024-02-21T06:14:50;100426.47;;;22.94;59.03
14882;BME280;7533;51.278;12.588;2024-02-21T06:19:53;100425.63;;;22.94;59.00
14882;BME280;7533;51.278;12.588;2024-02-21T06:24:56;100427.56;;;22.92;59.08
14882;BME280;7533;51.278;12.588;2024-02-21T06:30:00;100422.28;;;22.90;58.96
14882;BME280;7533;51.278;12.588;2024-02-21T06:35:03;100420.66;;;22.88;59.07
14882;BME280;7533;51.278;12.588;2024-02-21T06:40:07;100427.00;;;22.87;58.92
14882;BME280;7533;51.278;12.588;2024-02-21T06:45:11;100437.81;;;22.87;58.93
14882;BME280;7533;51.278;12.588;2024-02-21T06:50:15;100445.03;;;22.86;58.95
14882;BME280;7533;51.278;12.588;2024-02-21T06:55:18;100448.81;;;22.84;58.99
14882;BME280;7533;51.278;12.588;2024-02-21T07:00:23;100453.34;;;22.83;59.00
14882;BME280;7533;51.278;12.588;2024-02-21T07:05:27;100467.81;;;22.82;59.09
14882;BME280;7533;51.278;12.588;2024-02-21T07:10:30;100465.25;;;22.81;59.09
14882;BME280;7533;51.278;12.588;2024-02-21T07:15:34;100477.88;;;22.80;59.11
14882;BME280;7533;51.278;12.588;2024-02-21T07:20:37;100478.84;;;22.79;59.01
14882;BME280;7533;51.278;12.588;2024-02-21T07:25:42;100455.63;;;22.77;59.07
14882;BME280;7533;51.278;12.588;2024-02-21T07:30:47;100475.50;;;22.76;59.07
14882;BME280;7533;51.278;12.588;2024-02-21T07:35:50;100473.78;;;22.75;59.03
14882;BME280;7533;51.278;12.588;2024-02-21T07:40:52;100474.75;;;22.74;59.08
14882;BME280;7533;51.278;12.588;2024-02-21T07:45:57;100483.81;;;22.73;59.12
14882;BME280;7533;51.278;12.588;2024-02-21T07:51:00;100472.06;;;22.74;59.03
14882;BME280;7533;51.278;12.588;2024-02-21T07:56:03;100464.91;;;22.73;58.90
14882;BME280;7533;51.278;12.588;2024-02-21T08:01:07;100447.00;;;22.71;59.13
14882;BME280;7533;51.278;12.588;2024-02-21T08:06:11;100452.88;;;20.06;47.98
14882;BME280;7533;51.278;12.588;2024-02-21T08:11:15;100451.94;;;19.16;48.91
14882;BME280;7533;51.278;12.588;2024-02-21T08:16:19;100424.88;;;19.50;52.49
14882;BME280;7533;51.278;12.588;2024-02-21T08:21:22;100429.78;;;20.32;51.73
14882;BME280;7533;51.278;12.588;2024-02-21T08:26:25;100426.44;;;20.72;51.75
14882;BME280;7533;51.278;12.588;2024-02-21T08:31:31;100421.75;;;21.02;52.09
14882;BME280;7533;51.278;12.588;2024-02-21T08:36:35;100418.41;;;21.26;52.27
14882;BME280;7533;51.278;12.588;2024-02-21T08:41:38;100416.47;;;21.42;52.61
14882;BME280;7533;51.278;12.588;2024-02-21T08:46:59;100414.47;;;21.58;53.00
14882;BME280;7533;51.278;12.588;2024-02-21T08:52:05;100419.88;;;21.71;53.14
14882;BME280;7533;51.278;12.588;2024-02-21T08:57:08;100420.44;;;21.76;53.33
14882;BME280;7533;51.278;12.588;2024-02-21T09:02:12;100424.44;;;21.83;53.60
14882;BME280;7533;51.278;12.588;2024-02-21T09:07:17;100420.34;;;21.90;53.64
14882;BME280;7533;51.278;12.588;2024-02-21T09:12:20;100423.81;;;21.92;53.95
14882;BME280;7533;51.278;12.588;2024-02-21T09:17:25;100423.59;;;21.96;53.88
14882;BME280;7533;51.278;12.588;2024-02-21T09:22:31;100423.19;;;22.02;54.48
14882;BME280;7533;51.278;12.588;2024-02-21T09:27:36;100424.59;;;22.07;56.19
14882;BME280;7533;51.278;12.588;2024-02-21T09:32:40;100422.34;;;22.14;57.95
14882;BME280;7533;51.278;12.588;2024-02-21T09:37:43;100415.88;;;22.16;59.42
14882;BME280;7533;51.278;12.588;2024-02-21T09:42:47;100430.88;;;22.21;60.28
14882;BME280;7533;51.278;12.588;2024-02-21T09:48:05;100430.75;;;22.22;60.60
14882;BME280;7533;51.278;12.588;2024-02-21T09:53:12;100433.13;;;22.27;62.40
14882;BME280;7533;51.278;12.588;2024-02-21T09:58:15;100430.81;;;21.95;56.94
14882;BME280;7533;51.278;12.588;2024-02-21T10:03:20;100423.31;;;22.13;60.52
14882;BME280;7533;51.278;12.588;2024-02-21T10:08:23;100415.97;;;22.15;60.08
14882;BME280;7533;51.278;12.588;2024-02-21T10:13:28;100414.69;;;22.21;59.20
14882;BME280;7533;51.278;12.588;2024-02-21T10:18:33;100401.97;;;22.23;58.59
14882;BME280;7533;51.278;12.588;2024-02-21T10:23:43;100397.31;;;22.25;58.28
14882;BME280;7533;51.278;12.588;2024-02-21T10:28:47;100391.69;;;22.28;58.22
14882;BME280;7533;51.278;12.588;2024-02-21T10:33:55;100393.44;;;22.29;58.35
14882;BME280;7533;51.278;12.588;2024-02-21T10:38:59;100383.41;;;22.31;57.98
14882;BME280;7533;51.278;12.588;2024-02-21T10:44:05;100377.91;;;22.32;57.71
14882;BME280;7533;51.278;12.588;2024-02-21T10:49:14;100380.38;;;22.35;57.63
14882;BME280;7533;51.278;12.588;2024-02-21T10:54:30;100374.13;;;22.35;57.77
14882;BME280;7533;51.278;12.588;2024-02-21T10:59:37;100368.75;;;22.35;57.93
14882;BME280;7533;51.278;12.588;2024-02-21T11:04:43;100362.25;;;22.37;57.82
14882;BME280;7533;51.278;12.588;2024-02-21T11:09:50;100347.59;;;22.41;57.72
14882;BME280;7533;51.278;12.588;2024-02-21T11:15:03;100338.41;;;22.44;57.66
14882;BME280;7533;51.278;12.588;2024-02-21T11:20:14;100329.44;;;22.43;57.68
14882;BME280;7533;51.278;12.588;2024-02-21T11:25:21;100310.56;;;22.43;57.79
14882;BME280;7533;51.278;12.588;2024-02-21T11:30:26;100301.50;;;22.44;57.85
14882;BME280;7533;51.278;12.588;2024-02-21T11:35:35;100288.91;;;22.45;57.84
14882;BME280;7533;51.278;12.588;2024-02-21T11:40:39;100274.53;;;22.44;57.78
14882;BME280;7533;51.278;12.588;2024-02-21T11:45:43;100265.38;;;22.47;57.76
14882;BME280;7533;51.278;12.588;2024-02-21T11:50:54;100247.34;;;22.48;57.79
14882;BME280;7533;51.278;12.588;2024-02-21T11:55:57;100243.53;;;22.50;58.05
14882;BME280;7533;51.278;12.588;2024-02-21T12:01:00;100230.06;;;22.50;58.10
14882;BME280;7533;51.278;12.588;2024-02-21T12:06:07;100219.19;;;22.52;58.20
14882;BME280;7533;51.278;12.588;2024-02-21T12:11:20;100213.88;;;22.50;58.16
14882;BME280;7533;51.278;12.588;2024-02-21T12:16:23;100207.53;;;22.51;58.34
14882;BME280;7533;51.278;12.588;2024-02-21T12:21:32;100191.22;;;22.53;58.57
14882;BME280;7533;51.278;12.588;2024-02-21T12:26:38;100183.88;;;22.55;58.49
14882;BME280;7533;51.278;12.588;2024-02-21T12:31:41;100177.63;;;22.54;58.56
14882;BME280;7533;51.278;12.588;2024-02-21T12:36:48;100154.84;;;22.58;58.76
14882;BME280;7533;51.278;12.588;2024-02-21T12:41:51;100155.34;;;22.63;58.49
14882;BME280;7533;51.278;12.588;2024-02-21T12:46:54;100149.94;;;22.63;58.55
14882;BME280;7533;51.278;12.588;2024-02-21T12:51:58;100134.03;;;22.71;58.60
14882;BME280;7533;51.278;12.588;2024-02-21T12:57:01;100123.78;;;22.88;58.41
14882;BME280;7533;51.278;12.588;2024-02-21T13:02:05;100107.25;;;22.92;57.87
14882;BME280;7533;51.278;12.588;2024-02-21T13:07:11;100089.34;;;22.91;58.14
14882;BME280;7533;51.278;12.588;2024-02-21T13:12:14;100089.94;;;22.95;58.17
14882;BME280;7533;51.278;12.588;2024-02-21T13:17:17;100078.06;;;23.09;57.86
14882;BME280;7533;51.278;12.588;2024-02-21T13:22:22;100062.72;;;23.09;57.35
14882;BME280;7533;51.278;12.588;2024-02-21T13:27:27;100047.97;;;22.80;49.32
14882;BME280;7533;51.278;12.588;2024-02-21T13:32:30;100035.50;;;22.55;48.53
14882;BME280;7533;51.278;12.588;2024-02-21T13:37:34;100020.97;;;22.68;48.24
14882;BME280;7533;51.278;12.588;2024-02-21T13:42:39;100013.03;;;23.12;50.47
14882;BME280;7533;51.278;12.588;2024-02-21T13:47:41;100003.53;;;23.40;51.11
14882;BME280;7533;51.278;12.588;2024-02-21T13:52:46;100002.41;;;23.54;51.66
14882;BME280;7533;51.278;12.588;2024-02-21T13:57:49;100003.03;;;23.68;51.90
14882;BME280;7533;51.278;12.588;2024-02-21T14:02:56;99994.00;;;23.79;52.24
14882;BME280;7533;51.278;12.588;2024-02-21T14:08:01;99997.19;;;23.84;52.54
14882;BME280;7533;51.278;12.588;2024-02-21T14:13:04;99989.94;;;23.85;52.83
14882;BME280;7533;51.278;12.588;2024-02-21T14:18:06;99987.19;;;23.96;53.25
14882;BME280;7533;51.278;12.588;2024-02-21T14:23:12;99982.66;;;23.96;53.84
14882;BME280;7533;51.278;12.588;2024-02-21T14:28:15;99975.97;;;24.00;54.01
14882;BME280;7533;51.278;12.588;2024-02-21T14:33:22;99968.34;;;24.06;53.97
14882;BME280;7533;51.278;12.588;2024-02-21T14:38:26;99972.75;;;24.07;54.08
14882;BME280;7533;51.278;12.588;2024-02-21T14:43:29;99963.06;;;24.04;54.35
14882;BME280;7533;51.278;12.588;2024-02-21T14:48:32;99964.91;;;24.04;54.22
14882;BME280;7533;51.278;12.588;2024-02-21T14:53:37;99957.06;;;24.00;54.39
14882;BME280;7533;51.278;12.588;2024-02-21T14:58:41;99932.25;;;23.95;54.69
14882;BME280;7533;51.278;12.588;2024-02-21T15:03:44;99914.31;;;23.94;54.36
14882;BME280;7533;51.278;12.588;2024-02-21T15:08:48;99912.63;;;23.93;54.42
14882;BME280;7533;51.278;12.588;2024-02-21T15:13:51;99902.81;;;23.92;54.34
14882;BME280;7533;51.278;12.588;2024-02-21T15:18:54;99882.69;;;24.06;54.16
14882;BME280;7533;51.278;12.588;2024-02-21T15:23:59;99867.84;;;24.21;53.63
14882;BME280;7533;51.278;12.588;2024-02-21T15:29:03;99857.47;;;24.26;54.17
14882;BME280;7533;51.278;12.588;2024-02-21T15:34:07;99845.19;;;24.22;54.32
14882;BME280;7533;51.278;12.588;2024-02-21T15:39:11;99842.81;;;23.98;54.89
14882;BME280;7533;51.278;12.588;2024-02-21T15:44:14;99842.28;;;23.84;54.95
14882;BME280;7533;51.278;12.588;2024-02-21T15:49:17;99835.38;;;23.70;55.51
14882;BME280;7533;51.278;12.588;2024-02-21T15:54:22;99835.91;;;23.64;55.86
14882;BME280;7533;51.278;12.588;2024-02-21T15:59:34;99823.75;;;23.58;55.94
14882;BME280;7533;51.278;12.588;2024-02-21T16:04:50;99811.63;;;23.53;56.12
14882;BME280;7533;51.278;12.588;2024-02-21T16:09:55;99810.28;;;23.47;56.26
14882;BME280;7533;51.278;12.588;2024-02-21T16:14:58;99805.28;;;23.42;56.43
14882;BME280;7533;51.278;12.588;2024-02-21T16:20:02;99800.00;;;23.41;56.46
14882;BME280;7533;51.278;12.588;2024-02-21T16:25:07;99785.75;;;23.39;56.63
14882;BME280;7533;51.278;12.588;2024-02-21T16:30:11;99774.97;;;23.39;56.57
14882;BME280;7533;51.278;12.588;2024-02-21T16:35:14;99773.53;;;23.35;56.94
14882;BME280;7533;51.278;12.588;2024-02-21T16:40:19;99781.75;;;23.33;57.00
14882;BME280;7533;51.278;12.588;2024-02-21T16:45:22;99781.88;;;23.32;57.33
14882;BME280;7533;51.278;12.588;2024-02-21T16:50:25;99781.28;;;23.28;57.39
14882;BME280;7533;51.278;12.588;2024-02-21T16:55:29;99769.63;;;23.28;57.77
14882;BME280;7533;51.278;12.588;2024-02-21T17:00:35;99768.63;;;23.29;59.51
14882;BME280;7533;51.278;12.588;2024-02-21T17:05:40;99764.97;;;23.30;60.87
14882;BME280;7533;51.278;12.588;2024-02-21T17:10:45;99753.41;;;23.28;60.87
14882;BME280;7533;51.278;12.588;2024-02-21T17:15:48;99737.81;;;23.31;60.89
14882;BME280;7533;51.278;12.588;2024-02-21T17:20:51;99729.97;;;23.28;60.91
14882;BME280;7533;51.278;12.588;2024-02-21T17:25:55;99714.63;;;23.29;60.86
14882;BME280;7533;51.278;12.588;2024-02-21T17:30:58;99717.47;;;23.27;60.46
14882;BME280;7533;51.278;12.588;2024-02-21T17:36:01;99709.97;;;23.31;60.07
14882;BME280;7533;51.278;12.588;2024-02-21T17:41:06;99700.16;;;23.30;60.05
14882;BME280;7533;51.278;12.588;2024-02-21T17:46:09;99698.72;;;23.26;60.09
14882;BME280;7533;51.278;12.588;2024-02-21T17:51:12;99670.13;;;23.23;60.05
14882;BME280;7533;51.278;12.588;2024-02-21T17:56:17;99672.25;;;23.19;59.98
14882;BME280;7533;51.278;12.588;2024-02-21T18:01:21;99668.41;;;23.22;59.98
14882;BME280;7533;51.278;12.588;2024-02-21T18:06:24;99647.66;;;23.22;59.70
14882;BME280;7533;51.278;12.588;2024-02-21T18:11:29;99626.81;;;23.25;59.63
14882;BME280;7533;51.278;12.588;2024-02-21T18:16:32;99600.66;;;23.25;59.56
14882;BME280;7533;51.278;12.588;2024-02-21T18:21:35;99596.78;;;23.18;59.53
14882;BME280;7533;51.278;12.588;2024-02-21T18:26:40;99647.47;;;23.14;59.69
14882;BME280;7533;51.278;12.588;2024-02-21T18:31:43;99646.63;;;23.14;59.57
14882;BME280;7533;51.278;12.588;2024-02-21T18:36:46;99633.00;;;23.15;59.39
14882;BME280;7533;51.278;12.588;2024-02-21T18:41:50;99622.34;;;23.14;59.33
14882;BME280;7533;51.278;12.588;2024-02-21T18:46:54;99617.09;;;23.12;59.34
14882;BME280;7533;51.278;12.588;2024-02-21T18:51:58;99608.09;;;23.12;59.30
14882;BME280;7533;51.278;12.588;2024-02-21T18:57:03;99593.50;;;23.14;59.15
14882;BME280;7533;51.278;12.588;2024-02-21T19:02:06;99610.94;;;23.10;59.15
14882;BME280;7533;51.278;12.588;2024-02-21T19:07:09;99602.69;;;23.12;59.22
14882;BME280;7533;51.278;12.588;2024-02-21T19:12:13;99600.88;;;23.12;59.11
14882;BME280;7533;51.278;12.588;2024-02-21T19:17:16;99591.19;;;23.10;59.21
14882;BME280;7533;51.278;12.588;2024-02-21T19:22:19;99583.25;;;23.08;59.15
14882;BME280;7533;51.278;12.588;2024-02-21T19:27:25;99576.84;;;23.09;59.05
14882;BME280;7533;51.278;12.588;2024-02-21T19:32:28;99565.06;;;23.10;59.10
14882;BME280;7533;51.278;12.588;2024-02-21T19:37:31;99549.84;;;23.09;59.41
14882;BME280;7533;51.278;12.588;2024-02-21T19:42:35;99532.94;;;23.07;59.77
14882;BME280;7533;51.278;12.588;2024-02-21T19:47:40;99517.06;;;23.14;59.69
14882;BME280;7533;51.278;12.588;2024-02-21T19:52:45;99492.41;;;23.38;59.28
14882;BME280;7533;51.278;12.588;2024-02-21T19:57:49;99481.66;;;23.57;58.85
14882;BME280;7533;51.278;12.588;2024-02-21T20:02:52;99477.88;;;23.69;58.33
14882;BME280;7533;51.278;12.588;2024-02-21T20:07:55;99457.53;;;23.85;57.92
14882;BME280;7533;51.278;12.588;2024-02-21T20:12:59;99444.75;;;23.96;57.74
14882;BME280;7533;51.278;12.588;2024-02-21T20:18:03;99431.22;;;24.06;57.42
14882;BME280;7533;51.278;12.588;2024-02-21T20:23:06;99426.06;;;24.13;57.08
14882;BME280;7533;51.278;12.588;2024-02-21T20:28:15;99419.38;;;24.17;56.90
14882;BME280;7533;51.278;12.588;2024-02-21T20:33:19;99420.81;;;24.21;56.81
14882;BME280;7533;51.278;12.588;2024-02-21T20:38:22;99416.09;;;24.23;56.64
14882;BME280;7533;51.278;12.588;2024-02-21T20:43:26;99403.16;;;24.26;56.36
14882;BME280;7533;51.278;12.588;2024-02-21T20:48:29;99397.31;;;24.31;56.47
14882;BME280;7533;51.278;12.588;2024-02-21T20:53:32;99392.59;;;24.33;56.48
14882;BME280;7533;51.278;12.588;2024-02-21T20:58:37;99387.91;;;24.35;56.08
14882;BME280;7533;51.278;12.588;2024-02-21T21:03:39;99389.47;;;24.28;56.18
14882;BME280;7533;51.278;12.588;2024-02-21T21:08:42;99373.84;;;24.12;56.59
14882;BME280;7533;51.278;12.588;2024-02-21T21:13:47;99376.72;;;24.01;56.64
14882;BME280;7533;51.278;12.588;2024-02-21T21:18:49;99384.28;;;23.97;56.62
14882;BME280;7533;51.278;12.588;2024-02-21T21:23:53;99382.44;;;23.98;56.79
14882;BME280;7533;51.278;12.588;2024-02-21T21:28:58;99381.00;;;23.94;56.66
14882;BME280;7533;51.278;12.588;2024-02-21T21:34:00;99379.88;;;23.96;56.70
14882;BME280;7533;51.278;12.588;2024-02-21T21:39:04;99367.22;;;23.97;56.47
14882;BME280;7533;51.278;12.588;2024-02-21T21:44:08;99349.28;;;23.96;56.62
14882;BME280;7533;51.278;12.588;2024-02-21T21:49:13;99338.19;;;23.99;56.47
14882;BME280;7533;51.278;12.588;2024-02-21T21:54:17;99333.63;;;23.99;56.48
14882;BME280;7533;51.278;12.588;2024-02-21T21:59:22;99330.94;;;23.99;56.41
14882;BME280;7533;51.278;12.588;2024-02-21T22:04:24;99313.72;;;24.00;56.36
14882;BME280;7533;51.278;12.588;2024-02-21T22:09:27;99297.06;;;24.05;56.55
14882;BME280;7533;51.278;12.588;2024-02-21T22:14:32;99289.63;;;24.07;56.41
14882;BME280;7533;51.278;12.588;2024-02-21T22:19:35;99275.16;;;24.08;56.35
14882;BME280;7533;51.278;12.588;2024-02-21T22:24:38;99286.94;;;24.07;56.34
14882;BME280;7533;51.278;12.588;2024-02-21T22:29:46;99287.34;;;24.12;56.48
14882;BME280;7533;51.278;12.588;2024-02-21T22:34:50;99269.16;;;24.14;56.32
14882;BME280;7533;51.278;12.588;2024-02-21T22:39:53;99270.84;;;24.15;56.31
14882;BME280;7533;51.278;12.588;2024-02-21T22:44:59;99264.44;;;24.16;56.23
14882;BME280;7533;51.278;12.588;2024-02-21T22:50:02;99253.63;;;24.16;56.24
14882;BME280;7533;51.278;12.588;2024-02-21T22:55:06;99242.53;;;24.19;56.25
14882;BME280;7533;51.278;12.588;2024-02-21T23:00:13;99224.56;;;24.18;56.33
14882;BME280;7533;51.278;12.588;2024-02-21T23:05:18;99226.28;;;24.19;55.93
14882;BME280;7533;51.278;12.588;2024-02-21T23:10:24;99217.63;;;24.16;56.10
14882;BME280;7533;51.278;12.588;2024-02-21T23:15:28;99196.00;;;24.16;56.33
14882;BME280;7533;51.278;12.588;2024-02-21T23:20:31;99169.97;;;24.15;56.30
14882;BME280;7533;51.278;12.588;2024-02-21T23:25:34;99159.59;;;24.10;56.75
14882;BME280;7533;51.278;12.588;2024-02-21T23:30:42;99162.47;;;24.09;56.72
14882;BME280;7533;51.278;12.588;2024-02-21T23:35:45;99150.81;;;24.08;56.77
14882;BME280;7533;51.278;12.588;2024-02-21T23:40:48;99138.44;;;24.06;56.68
14882;BME280;7533;51.278;12.588;2024-02-21T23:45:52;99136.88;;;24.03;56.77
14882;BME280;7533;51.278;12.588;2024-02-21T23:50:56;99127.22;;;24.00;56.90
14882;BME280;7533;51.278;12.588;2024-02-21T23:55:59;99110.47;;;23.97;57.05
